createdAt,value
2019-05-06T00:00:26.984Z,5.07
2019-05-06T00:02:56.457Z,3.67
2019-05-06T00:05:25.945Z,5.87
2019-05-06T00:07:55.439Z,6.07
2019-05-06T00:10:27.026Z,8.23
2019-05-06T00:12:56.854Z,6.77
2019-05-06T00:15:26.720Z,6.47
2019-05-06T00:17:56.610Z,8.10
2019-05-06T00:20:26.111Z,9.40
2019-05-06T00:22:59.569Z,5.60
2019-05-06T00:26:00.227Z,5.33
2019-05-06T00:28:38.416Z,7.60
2019-05-06T00:31:13.270Z,7.10
2019-05-06T00:33:40.968Z,7.33
2019-05-06T00:36:10.458Z,6.07
2019-05-06T00:38:41.564Z,5.30
2019-05-06T00:41:15.367Z,7.33
2019-05-06T00:43:44.856Z,5.47
2019-05-06T00:46:16.053Z,4.80
2019-05-06T00:48:45.539Z,6.90
2019-05-06T00:51:15.033Z,6.00
2019-05-06T00:53:48.394Z,6.13
2019-05-06T00:56:18.163Z,4.67
2019-05-06T00:58:47.638Z,7.57
2019-05-06T01:01:26.028Z,9.13
2019-05-06T01:03:48.335Z,8.03
2019-05-06T01:06:17.877Z,6.40
2019-05-06T01:08:47.428Z,9.40
2019-05-06T01:11:17.025Z,4.60
2019-05-06T01:13:58.872Z,8.37
2019-05-06T01:16:28.353Z,4.40
2019-05-06T01:18:57.820Z,7.47
2019-05-06T01:21:27.304Z,6.53
2019-05-06T01:23:56.816Z,6.60
2019-05-06T01:26:26.478Z,6.23
2019-05-06T01:28:56.068Z,7.50
2019-05-06T01:31:39.506Z,4.43
2019-05-06T01:33:56.952Z,7.87
2019-05-06T01:36:26.519Z,6.77
2019-05-06T01:39:04.275Z,11.80
2019-05-06T01:41:45.621Z,6.93
2019-05-06T01:44:15.209Z,7.47
2019-05-06T01:46:44.828Z,10.63
2019-05-06T01:49:14.451Z,7.30
2019-05-06T01:51:43.966Z,10.33
2019-05-06T01:54:14.186Z,7.53
2019-05-06T01:56:44.472Z,7.63
2019-05-06T01:59:14.262Z,8.33
2019-05-06T02:01:57.431Z,7.27
2019-05-06T02:04:14.981Z,12.40
2019-05-06T02:06:44.462Z,8.23
2019-05-06T02:09:17.946Z,12.37
2019-05-06T02:11:48.189Z,12.53
2019-05-06T02:14:18.171Z,7.93
2019-05-06T02:16:47.728Z,9.23
2019-05-06T02:19:17.362Z,11.07
2019-05-06T02:21:54.437Z,6.50
2019-05-06T02:24:28.754Z,8.83
2019-05-06T02:26:58.283Z,11.87
2019-05-06T02:29:30.183Z,8.43
2019-05-06T02:32:30.249Z,10.63
2019-05-06T02:35:14.977Z,8.40
2019-05-06T02:37:46.465Z,7.30
2019-05-06T02:40:25.558Z,7.07
2019-05-06T02:42:55.527Z,8.13
2019-05-06T02:45:25.170Z,7.37
2019-05-06T02:48:13.939Z,7.97
2019-05-06T02:51:03.718Z,8.47
2019-05-06T02:53:33.849Z,8.40
2019-05-06T02:56:04.346Z,5.60
2019-05-06T02:58:34.103Z,10.10
2019-05-06T03:01:04.028Z,7.00
2019-05-06T03:03:34.122Z,7.17
2019-05-06T03:06:04.415Z,11.27
2019-05-06T03:08:34.737Z,7.67
2019-05-06T03:11:04.545Z,8.03
2019-05-06T03:13:34.378Z,11.63
2019-05-06T03:16:05.936Z,10.63
2019-05-06T03:18:35.315Z,12.37
2019-05-06T03:21:24.748Z,7.07
2019-05-06T03:24:14.576Z,6.90
2019-05-06T03:26:43.856Z,7.63
2019-05-06T03:29:13.767Z,9.30
2019-05-06T03:31:46.322Z,8.33
2019-05-06T03:34:36.514Z,10.97
2019-05-06T03:36:48.441Z,8.63
2019-05-06T03:39:16.950Z,7.93
2019-05-06T03:41:46.430Z,8.70
2019-05-06T03:44:16.781Z,10.30
2019-05-06T03:47:05.682Z,9.37
2019-05-06T03:49:38.143Z,10.50
2019-05-06T03:52:07.608Z,10.03
2019-05-06T03:54:37.868Z,8.00
2019-05-06T03:57:07.346Z,7.57
2019-05-06T03:59:39.028Z,9.40
2019-05-06T04:02:09.722Z,10.37
2019-05-06T04:04:39.181Z,12.27
2019-05-06T04:07:08.887Z,8.03
2019-05-06T04:09:38.428Z,12.30
2019-05-06T04:12:07.983Z,11.03
2019-05-06T04:14:37.563Z,9.37
2019-05-06T04:17:15.707Z,12.23
2019-05-06T04:19:49.099Z,12.13
2019-05-06T04:22:45.478Z,9.77
2019-05-06T04:25:36.632Z,13.70
2019-05-06T04:28:13.872Z,11.63
2019-05-06T04:30:43.736Z,9.37
2019-05-06T04:33:17.295Z,7.93
2019-05-06T04:35:44.669Z,16.13
2019-05-06T04:38:14.159Z,14.13
2019-05-06T04:40:44.189Z,11.90
2019-05-06T04:43:13.829Z,11.33
2019-05-06T04:45:43.597Z,11.17
2019-05-06T04:48:14.535Z,8.43
2019-05-06T04:50:44.729Z,11.73
2019-05-06T04:53:14.443Z,10.90
2019-05-06T04:55:44.194Z,11.67
2019-05-06T04:58:14.247Z,10.90
2019-05-06T05:00:44.675Z,9.50
2019-05-06T05:03:14.398Z,10.77
2019-05-06T05:05:44.765Z,12.30
2019-05-06T05:08:14.983Z,9.20
2019-05-06T05:11:09.914Z,8.23
2019-05-06T05:14:04.423Z,18.43
2019-05-06T05:16:52.914Z,8.20
2019-05-06T05:19:23.085Z,12.40
2019-05-06T05:21:55.719Z,16.63
2019-05-06T05:24:25.316Z,12.80
2019-05-06T05:26:54.931Z,11.93
2019-05-06T05:29:24.422Z,10.87
2019-05-06T05:31:54.111Z,13.37
2019-05-06T05:34:36.944Z,11.37
2019-05-06T05:36:54.834Z,7.27
2019-05-06T05:39:24.380Z,9.67
2019-05-06T05:41:55.562Z,12.33
2019-05-06T05:44:28.324Z,11.40
2019-05-06T05:46:57.876Z,12.47
2019-05-06T05:49:35.085Z,9.90
2019-05-06T05:52:04.729Z,13.33
2019-05-06T05:54:34.341Z,10.37
2019-05-06T05:57:03.810Z,10.73
2019-05-06T05:59:33.330Z,9.00
2019-05-06T06:02:03.798Z,11.67
2019-05-06T06:04:33.512Z,9.07
2019-05-06T06:07:03.013Z,10.83
2019-05-06T06:09:36.235Z,10.63
2019-05-06T06:12:07.765Z,14.73
2019-05-06T06:14:56.499Z,11.43
2019-05-06T06:17:45.122Z,9.00
2019-05-06T06:20:32.826Z,12.93
2019-05-06T06:23:08.123Z,12.10
2019-05-06T06:25:37.724Z,9.27
2019-05-06T06:28:07.192Z,10.60
2019-05-06T06:30:44.787Z,13.13
2019-05-06T06:33:14.265Z,11.20
2019-05-06T06:35:53.700Z,13.07
2019-05-06T06:38:28.796Z,13.13
2019-05-06T06:41:02.529Z,14.10
2019-05-06T06:43:32.448Z,13.93
2019-05-06T06:46:02.563Z,12.37
2019-05-06T06:48:32.181Z,11.93
2019-05-06T06:51:03.487Z,13.40
2019-05-06T06:53:33.137Z,12.63
2019-05-06T06:56:24.629Z,12.20
2019-05-06T06:59:07.668Z,15.87
2019-05-06T07:01:46.714Z,13.73
2019-05-06T07:04:23.143Z,13.93
2019-05-06T07:06:54.908Z,10.97
2019-05-06T07:09:24.395Z,11.90
2019-05-06T07:11:53.926Z,17.00
2019-05-06T07:14:23.483Z,11.67
2019-05-06T07:16:53.421Z,14.37
2019-05-06T07:19:29.657Z,13.77
2019-05-06T07:21:59.354Z,13.50
2019-05-06T07:24:28.871Z,14.50
2019-05-06T07:27:17.965Z,11.33
2019-05-06T07:29:48.511Z,14.57
2019-05-06T07:32:18.251Z,14.33
2019-05-06T07:34:47.780Z,13.37
2019-05-06T07:37:17.313Z,13.00
2019-05-06T07:39:46.810Z,10.33
2019-05-06T07:42:32.278Z,10.03
2019-05-06T07:45:22.689Z,13.10
2019-05-06T07:47:55.531Z,9.17
2019-05-06T07:50:25.060Z,8.20
2019-05-06T07:53:06.674Z,9.60
2019-05-06T07:55:36.701Z,9.87
2019-05-06T07:58:06.622Z,8.23
2019-05-06T08:00:36.620Z,8.30
2019-05-06T08:03:06.765Z,8.03
2019-05-06T08:05:52.783Z,9.87
2019-05-06T08:08:16.646Z,7.97
2019-05-06T08:10:45.463Z,3.77
2019-05-06T08:13:15.023Z,4.13
2019-05-06T08:15:44.533Z,2.93
2019-05-06T08:18:14.165Z,2.30
2019-05-06T08:20:43.751Z,2.83
2019-05-06T08:23:18.473Z,2.17
2019-05-06T08:25:54.335Z,6.50
2019-05-06T08:28:22.555Z,5.83
2019-05-06T08:30:53.090Z,3.13
2019-05-06T08:33:22.846Z,4.80
2019-05-06T08:35:53.322Z,7.53
2019-05-06T08:38:23.794Z,3.47
2019-05-06T08:40:53.491Z,3.13
2019-05-06T08:43:22.998Z,3.53
2019-05-06T08:45:52.960Z,2.13
2019-05-06T08:48:22.560Z,1.83
2019-05-06T08:51:12.709Z,3.73
2019-05-06T08:54:36.532Z,3.00
2019-05-06T08:57:06.093Z,4.57
2019-05-06T08:59:35.611Z,7.60
2019-05-06T09:02:05.565Z,2.60
2019-05-06T09:04:35.861Z,4.37
2019-05-06T09:07:06.850Z,3.83
2019-05-06T09:09:36.362Z,4.30
2019-05-06T09:12:05.933Z,5.53
2019-05-06T09:14:35.427Z,5.17
2019-05-06T09:17:05.665Z,4.70
2019-05-06T09:19:35.166Z,3.63
2019-05-06T09:22:04.782Z,1.60
2019-05-06T09:24:34.260Z,3.13
2019-05-06T09:27:17.475Z,3.00
2019-05-06T09:29:51.971Z,3.03
2019-05-06T09:32:36.016Z,1.90
2019-05-06T09:35:03.281Z,5.77
2019-05-06T09:37:32.825Z,3.13
2019-05-06T09:40:02.996Z,2.50
2019-05-06T09:42:32.806Z,4.43
2019-05-06T09:45:02.526Z,4.00
2019-05-06T09:47:56.708Z,4.70
2019-05-06T09:50:38.998Z,3.70
2019-05-06T09:53:13.130Z,3.57
2019-05-06T09:56:03.414Z,2.23
2019-05-06T09:58:34.002Z,2.17
2019-05-06T10:01:04.226Z,4.27
2019-05-06T10:03:33.744Z,2.70
2019-05-06T10:06:03.364Z,6.20
2019-05-06T10:08:32.889Z,9.60
2019-05-06T10:11:03.144Z,8.10
2019-05-06T10:13:33.203Z,8.27
2019-05-06T10:16:03.194Z,5.63
2019-05-06T10:18:32.942Z,3.23
2019-05-06T10:21:02.613Z,8.27
2019-05-06T10:23:32.746Z,15.73
2019-05-06T10:26:04.524Z,9.13
2019-05-06T10:28:52.300Z,18.00
2019-05-06T10:31:22.037Z,2.23
2019-05-06T10:34:09.080Z,14.53
2019-05-06T10:37:12.577Z,9.57
2019-05-06T10:39:37.466Z,17.37
2019-05-06T10:42:13.471Z,2.37
2019-05-06T10:48:05.361Z,2.90
2019-05-06T10:50:39.324Z,19.23
2019-05-06T10:53:19.694Z,23.33
2019-05-06T10:55:57.847Z,7.07
2019-05-06T10:58:27.442Z,16.50
2019-05-06T11:01:22.980Z,6.80
2019-05-06T11:03:52.518Z,3.53
2019-05-06T11:06:22.250Z,6.53
2019-05-06T11:08:52.551Z,2.77
2019-05-06T11:11:32.784Z,2.30
2019-05-06T11:13:55.712Z,2.40
2019-05-06T11:16:25.244Z,6.37
2019-05-06T11:18:54.771Z,3.87
2019-05-06T11:21:24.252Z,4.70
2019-05-06T11:23:53.765Z,3.03
2019-05-06T11:26:23.795Z,3.00
2019-05-06T11:29:04.738Z,3.10
2019-05-06T11:31:56.951Z,4.97
2019-05-06T11:34:34.180Z,5.23
2019-05-06T11:37:42.301Z,8.83
2019-05-06T11:39:59.903Z,4.07
2019-05-06T11:42:33.514Z,2.83
2019-05-06T11:45:03.013Z,3.80
2019-05-06T11:47:32.524Z,4.23
2019-05-06T11:50:04.973Z,4.77
2019-05-06T11:52:34.604Z,2.90
2019-05-06T11:55:04.539Z,3.60
2019-05-06T11:57:34.064Z,2.77
2019-05-06T12:00:04.037Z,3.00
2019-05-06T12:02:33.497Z,3.17
2019-05-06T12:05:03.082Z,3.67
2019-05-06T12:07:33.220Z,7.13
2019-05-06T12:10:03.060Z,5.27
2019-05-06T12:12:32.532Z,5.27
2019-05-06T12:15:03.475Z,3.17
2019-05-06T12:17:33.278Z,5.00
2019-05-06T12:20:03.157Z,3.50
2019-05-06T12:22:35.820Z,5.07
2019-05-06T12:25:12.614Z,6.00
2019-05-06T12:27:44.820Z,5.60
2019-05-06T12:30:17.000Z,3.97
2019-05-06T12:33:14.592Z,6.37
2019-05-06T12:35:47.814Z,4.17
2019-05-06T12:38:30.346Z,3.63
2019-05-06T12:40:54.433Z,5.53
2019-05-06T12:43:40.172Z,6.63
2019-05-06T12:46:22.618Z,6.17
2019-05-06T12:48:52.242Z,4.67
2019-05-06T12:51:22.714Z,4.10
2019-05-06T12:53:52.900Z,4.73
2019-05-06T12:56:22.724Z,5.43
2019-05-06T12:58:52.658Z,6.50
2019-05-06T13:01:33.488Z,6.47
2019-05-06T13:04:04.505Z,4.63
2019-05-06T13:06:33.427Z,2.90
2019-05-06T13:09:05.133Z,4.57
2019-05-06T13:11:34.461Z,4.93
2019-05-06T13:14:04.395Z,4.87
2019-05-06T13:16:34.017Z,2.60
2019-05-06T13:19:03.792Z,3.57
2019-05-06T13:21:42.875Z,3.50
2019-05-06T13:24:12.470Z,3.83
2019-05-06T13:26:43.132Z,14.43
2019-05-06T13:29:18.929Z,4.33
2019-05-06T13:31:49.787Z,3.90
2019-05-06T13:34:23.229Z,3.77
2019-05-06T13:36:53.273Z,4.33
2019-05-06T13:39:23.849Z,3.43
2019-05-06T13:41:55.428Z,3.20
2019-05-06T13:44:25.011Z,4.67
2019-05-06T13:46:55.295Z,3.77
2019-05-06T13:49:46.146Z,3.63
2019-05-06T13:52:18.485Z,5.03
2019-05-06T13:54:48.067Z,8.73
2019-05-06T13:57:17.647Z,4.60
2019-05-06T13:59:47.203Z,5.47
2019-05-06T14:02:23.826Z,3.70
2019-05-06T14:04:54.529Z,3.63
2019-05-06T14:07:24.554Z,2.37
2019-05-06T14:09:54.219Z,2.43
2019-05-06T14:12:23.784Z,2.30
2019-05-06T14:14:53.573Z,2.37
2019-05-06T14:17:23.068Z,4.73
2019-05-06T14:19:53.409Z,2.77
2019-05-06T14:22:23.395Z,2.60
2019-05-06T14:25:12.667Z,2.40
2019-05-06T14:27:43.446Z,2.30
2019-05-06T14:30:19.497Z,2.67
2019-05-06T14:32:49.002Z,2.67
2019-05-06T14:35:18.485Z,2.60
2019-05-06T14:37:48.042Z,6.30
2019-05-06T14:40:22.570Z,3.33
2019-05-06T14:42:53.138Z,2.60
2019-05-06T14:45:22.781Z,2.90
2019-05-06T14:47:52.783Z,3.27
2019-05-06T14:50:31.445Z,5.13
2019-05-06T14:52:54.751Z,4.40
2019-05-06T14:55:28.831Z,3.87
2019-05-06T14:57:58.303Z,4.07
2019-05-06T15:00:27.885Z,4.03
2019-05-06T15:02:57.442Z,5.20
2019-05-06T15:05:26.950Z,3.80
2019-05-06T15:07:56.553Z,4.83
2019-05-06T15:10:26.644Z,4.07
2019-05-06T15:12:56.220Z,3.30
2019-05-06T15:15:25.762Z,4.30
2019-05-06T15:17:55.481Z,3.57
2019-05-06T15:20:25.037Z,4.40
2019-05-06T15:22:54.472Z,4.57
2019-05-06T15:25:23.971Z,7.33
2019-05-06T15:27:53.486Z,4.67
2019-05-06T15:30:33.502Z,4.70
2019-05-06T15:33:02.582Z,5.43
2019-05-06T15:35:52.387Z,5.00
2019-05-06T15:38:25.155Z,5.10
2019-05-06T15:40:54.663Z,5.17
2019-05-06T15:43:26.420Z,5.57
2019-05-06T15:45:55.873Z,6.37
2019-05-06T15:48:27.179Z,6.03
2019-05-06T15:50:56.656Z,5.93
2019-05-06T15:53:26.123Z,6.07
2019-05-06T15:55:55.619Z,5.93
2019-05-06T15:58:25.128Z,6.53
2019-05-06T16:00:54.613Z,6.70
2019-05-06T16:03:24.103Z,5.17
2019-05-06T16:05:55.208Z,5.97
2019-05-06T16:08:25.010Z,5.47
2019-05-06T16:10:58.199Z,4.93
2019-05-06T16:13:25.738Z,5.13
2019-05-06T16:15:55.469Z,5.53
2019-05-06T16:18:24.982Z,5.40
2019-05-06T16:20:57.598Z,6.47
2019-05-06T16:23:36.689Z,5.90
2019-05-06T16:26:06.173Z,5.43
2019-05-06T16:28:35.681Z,4.60
2019-05-06T16:31:05.149Z,5.60
2019-05-06T16:33:34.709Z,4.87
2019-05-06T16:36:04.216Z,6.23
2019-05-06T16:38:33.715Z,4.87
2019-05-06T16:41:12.333Z,6.53
2019-05-06T16:43:35.266Z,3.33
2019-05-06T16:46:04.732Z,3.40
2019-05-06T16:48:34.261Z,4.73
2019-05-06T16:51:06.510Z,4.27
2019-05-06T16:53:36.371Z,4.57
2019-05-06T16:56:33.294Z,6.00
2019-05-06T16:59:04.864Z,4.50
2019-05-06T17:01:35.941Z,3.57
2019-05-06T17:04:15.324Z,6.10
2019-05-06T17:06:45.410Z,5.43
2019-05-06T17:09:20.914Z,5.17
2019-05-06T17:11:47.969Z,4.23
2019-05-06T17:14:17.539Z,3.50
2019-05-06T17:16:47.025Z,3.80
2019-05-06T17:19:16.589Z,4.40
2019-05-06T17:21:48.348Z,5.73
2019-05-06T17:24:17.467Z,3.13
2019-05-06T17:26:47.028Z,4.03
2019-05-06T17:29:33.950Z,3.97
2019-05-06T17:32:25.211Z,3.90
2019-05-06T17:34:57.714Z,4.40
2019-05-06T17:37:44.282Z,3.53
2019-05-06T17:40:16.194Z,4.00
2019-05-06T17:42:45.715Z,4.80
2019-05-06T17:45:33.695Z,4.50
2019-05-06T17:48:27.664Z,3.47
2019-05-06T17:51:15.590Z,8.87
2019-05-06T17:53:48.660Z,3.97
2019-05-06T17:56:18.521Z,4.43
2019-05-06T17:58:48.111Z,4.57
2019-05-06T18:01:23.266Z,81.50
2019-05-06T18:03:52.712Z,9.30
2019-05-06T18:06:22.928Z,5.00
2019-05-06T18:08:52.890Z,8.57
2019-05-06T18:11:22.582Z,3.57
2019-05-06T18:13:52.247Z,4.00
2019-05-06T18:16:22.378Z,3.33
2019-05-06T18:18:52.386Z,3.73
2019-05-06T18:21:23.083Z,5.43
2019-05-06T18:23:52.718Z,5.47
2019-05-06T18:26:23.005Z,4.10
2019-05-06T18:28:52.918Z,4.90
2019-05-06T18:31:22.469Z,4.10
2019-05-06T18:33:52.760Z,6.20
2019-05-06T18:36:22.864Z,5.37
2019-05-06T18:38:52.796Z,4.10
2019-05-06T18:41:23.616Z,4.10
2019-05-06T18:43:53.688Z,5.87
2019-05-06T18:46:23.315Z,4.20
2019-05-06T18:48:52.781Z,4.27
2019-05-06T18:51:22.592Z,6.10
2019-05-06T18:53:53.033Z,3.83
2019-05-06T18:56:22.631Z,4.53
2019-05-06T18:58:52.996Z,3.70
2019-05-06T19:01:23.404Z,4.37
2019-05-06T19:03:59.845Z,5.53
2019-05-06T19:06:29.312Z,4.27
2019-05-06T19:09:05.846Z,4.33
2019-05-06T19:11:35.391Z,4.60
2019-05-06T19:14:04.929Z,3.80
2019-05-06T19:16:48.849Z,6.73
2019-05-06T19:19:06.157Z,4.30
2019-05-06T19:21:35.631Z,5.00
2019-05-06T19:24:05.216Z,7.77
2019-05-06T19:26:34.704Z,7.10
2019-05-06T19:29:04.649Z,9.07
2019-05-06T19:31:34.173Z,8.60
2019-05-06T19:34:03.641Z,10.23
2019-05-06T19:36:34.833Z,10.00
2019-05-06T19:39:13.824Z,9.67
2019-05-06T19:41:43.432Z,11.10
2019-05-06T19:44:12.970Z,10.07
2019-05-06T19:46:42.545Z,10.17
2019-05-06T19:49:13.257Z,11.03
2019-05-06T19:51:42.916Z,9.87
2019-05-06T19:54:12.709Z,10.27
2019-05-06T19:56:42.423Z,10.17
2019-05-06T19:59:14.770Z,9.73
2019-05-06T20:01:44.245Z,10.37
2019-05-06T20:04:13.740Z,11.27
2019-05-06T20:06:49.235Z,12.87
2019-05-06T20:09:43.543Z,13.63
2019-05-06T20:12:19.390Z,12.10
2019-05-06T20:14:48.896Z,14.57
2019-05-06T20:17:18.397Z,14.53
2019-05-06T20:19:47.891Z,15.73
2019-05-06T20:22:17.372Z,14.80
2019-05-06T20:24:48.066Z,14.80
2019-05-06T20:27:17.541Z,15.77
2019-05-06T20:29:47.099Z,16.53
2019-05-06T20:32:16.585Z,18.17
2019-05-06T20:34:46.102Z,18.57
2019-05-06T20:37:15.587Z,18.27
2019-05-06T20:39:45.139Z,17.93
2019-05-06T20:42:14.655Z,17.77
2019-05-06T20:44:44.138Z,20.00
2019-05-06T20:47:13.638Z,19.83
2019-05-06T20:49:43.352Z,20.27
2019-05-06T20:52:12.870Z,20.63
2019-05-06T20:54:42.788Z,18.77
2019-05-06T20:57:12.584Z,21.60
2019-05-06T20:59:42.224Z,21.03
2019-05-06T21:02:12.435Z,22.57
2019-05-06T21:04:43.141Z,22.13
2019-05-06T21:07:12.825Z,21.60
2019-05-06T21:09:43.151Z,22.63
2019-05-06T21:12:12.842Z,22.30
2019-05-06T21:14:42.328Z,21.33
2019-05-06T21:17:12.522Z,21.63
2019-05-06T21:19:42.167Z,22.50
2019-05-06T21:22:13.291Z,23.80
2019-05-06T21:24:43.182Z,22.83
2019-05-06T21:27:12.804Z,21.93
2019-05-06T21:29:42.285Z,21.90
2019-05-06T21:32:11.780Z,22.60
2019-05-06T21:34:43.225Z,22.53
2019-05-06T21:37:12.451Z,22.23
2019-05-06T21:39:42.460Z,22.97
2019-05-06T21:42:12.251Z,24.13
2019-05-06T21:44:42.929Z,23.70
2019-05-06T21:47:12.451Z,21.17
2019-05-06T21:49:42.273Z,21.33
2019-05-06T21:52:13.092Z,22.53
2019-05-06T21:54:43.432Z,22.67
2019-05-06T21:57:13.198Z,22.43
2019-05-06T21:59:42.869Z,21.97
2019-05-06T22:02:13.975Z,19.33
2019-05-06T22:04:43.475Z,19.50
2019-05-06T22:07:13.005Z,18.93
2019-05-06T22:09:43.029Z,19.27
2019-05-06T22:12:12.633Z,17.27
2019-05-06T22:14:42.356Z,19.50
2019-05-06T22:17:13.941Z,17.20
2019-05-06T22:19:43.270Z,17.23
2019-05-06T22:22:14.646Z,23.00
2019-05-06T22:24:48.475Z,15.83
2019-05-06T22:27:18.126Z,18.33
2019-05-06T22:29:47.955Z,16.40
2019-05-06T22:32:17.448Z,15.43
2019-05-06T22:34:46.975Z,15.47
2019-05-06T22:37:16.455Z,17.17
2019-05-06T22:39:46.097Z,18.47
2019-05-06T22:42:15.609Z,15.13
2019-05-06T22:44:45.139Z,16.80
2019-05-06T22:47:14.741Z,15.10
2019-05-06T22:49:44.206Z,14.60
2019-05-06T22:52:13.763Z,14.33
2019-05-06T22:54:43.514Z,13.47
2019-05-06T22:57:13.119Z,13.63
2019-05-06T22:59:42.918Z,14.13
2019-05-06T23:02:25.406Z,11.77
2019-05-06T23:04:57.428Z,11.40
2019-05-06T23:07:26.914Z,12.97
2019-05-06T23:09:58.460Z,11.53
2019-05-06T23:12:27.965Z,10.97
2019-05-06T23:14:57.497Z,10.60
2019-05-06T23:17:26.937Z,10.27
2019-05-06T23:19:56.417Z,11.30
2019-05-06T23:22:25.885Z,9.47
2019-05-06T23:24:56.239Z,9.47
2019-05-06T23:27:25.719Z,10.77
2019-05-06T23:29:55.210Z,8.77
2019-05-06T23:32:24.699Z,9.33
2019-05-06T23:34:54.189Z,8.77
2019-05-06T23:37:23.222Z,8.10
2019-05-06T23:40:35.521Z,8.30
2019-05-06T23:43:42.596Z,8.97
2019-05-06T23:46:47.797Z,8.33
2019-05-06T23:49:53.245Z,9.03
2019-05-06T23:52:58.358Z,8.83
2019-05-06T23:56:03.759Z,9.17
2019-05-06T23:58:33.243Z,7.93
